createdAt,value
2022-10-23T00:07:18.247Z,12.11
2022-10-23T00:17:20.870Z,12.14
2022-10-23T00:27:25.085Z,12.16
2022-10-23T00:37:27.733Z,12.15
2022-10-23T00:47:31.938Z,12.07
2022-10-23T00:57:34.649Z,12.12
2022-10-23T01:07:48.493Z,12.10
2022-10-23T01:17:56.334Z,11.92
2022-10-23T01:28:03.815Z,11.88
2022-10-23T01:38:12.999Z,11.90
2022-10-23T01:48:22.537Z,11.84
2022-10-23T01:58:27.358Z,11.77
2022-10-23T02:08:32.259Z,11.69
2022-10-23T02:18:41.638Z,11.53
2022-10-23T02:28:50.242Z,11.40
2022-10-23T02:38:52.848Z,11.45
2022-10-23T02:49:03.811Z,11.42
2022-10-23T02:59:12.526Z,11.48
2022-10-23T03:09:16.504Z,11.52
2022-10-23T03:19:19.091Z,11.52
2022-10-23T03:29:23.330Z,11.46
2022-10-23T03:39:25.923Z,11.43
2022-10-23T03:49:30.340Z,11.34
2022-10-23T03:59:33.088Z,11.34
2022-10-23T04:09:37.221Z,11.19
2022-10-23T04:19:39.814Z,11.17
2022-10-23T04:29:43.772Z,11.05
2022-10-23T04:39:46.511Z,11.10
2022-10-23T04:49:50.460Z,11.12
2022-10-23T04:59:53.046Z,11.04
2022-10-23T05:09:56.999Z,11.02
2022-10-23T05:20:01.714Z,10.89
2022-10-23T05:30:07.275Z,10.83
2022-10-23T05:40:11.371Z,10.83
2022-10-23T05:50:15.495Z,10.90
2022-10-23T06:00:18.408Z,10.86
2022-10-23T06:10:22.350Z,10.93
2022-10-23T06:20:27.886Z,11.03
2022-10-23T06:30:32.976Z,11.05
2022-10-23T06:40:35.820Z,11.25
2022-10-23T06:50:40.090Z,11.42
2022-10-23T07:00:42.727Z,11.62
2022-10-23T07:10:47.884Z,11.88
2022-10-23T07:20:51.326Z,12.16
2022-10-23T07:30:58.755Z,12.33
2022-10-23T07:41:02.410Z,12.56
2022-10-23T07:51:10.443Z,12.76
2022-10-23T08:01:18.306Z,13.02
2022-10-23T08:11:27.126Z,13.18
2022-10-23T08:21:29.749Z,13.38
2022-10-23T08:31:33.807Z,13.58
2022-10-23T08:41:39.199Z,13.76
2022-10-23T08:51:46.070Z,14.00
2022-10-23T09:01:52.006Z,14.24
2022-10-23T09:12:03.976Z,14.34
2022-10-23T09:22:07.244Z,14.78
2022-10-23T09:32:11.228Z,15.07
2022-10-23T09:42:24.494Z,15.39
2022-10-23T09:52:33.058Z,15.72
2022-10-23T10:02:37.538Z,16.01
2022-10-23T10:12:50.643Z,16.35
2022-10-23T10:22:57.211Z,16.47
2022-10-23T10:33:07.107Z,16.74
2022-10-23T10:43:24.551Z,17.31
2022-10-23T10:53:39.984Z,17.94
2022-10-23T11:03:49.477Z,18.44
2022-10-23T11:13:54.070Z,20.04
2022-10-23T11:24:19.896Z,19.15
2022-10-23T11:34:48.243Z,18.70
2022-10-23T11:44:51.402Z,18.53
2022-10-23T11:55:03.599Z,18.64
2022-10-23T12:05:09.524Z,18.20
2022-10-23T12:15:22.896Z,17.87
2022-10-23T12:25:34.330Z,18.11
2022-10-23T12:36:13.303Z,17.92
2022-10-23T12:46:36.890Z,17.91
2022-10-23T12:56:39.819Z,17.97
2022-10-23T13:06:44.703Z,18.05
2022-10-23T13:16:47.331Z,18.11
2022-10-23T13:26:51.570Z,18.22
2022-10-23T13:37:00.875Z,18.17
2022-10-23T13:47:05.003Z,18.03
2022-10-23T13:57:12.346Z,18.00
2022-10-23T14:07:16.571Z,18.10
2022-10-23T14:17:19.187Z,17.98
2022-10-23T14:27:23.145Z,17.78
2022-10-23T14:37:25.894Z,17.73
2022-10-23T14:47:29.996Z,17.70
2022-10-23T14:57:32.599Z,17.64
2022-10-23T15:07:36.543Z,17.44
2022-10-23T15:17:39.156Z,17.24
2022-10-23T15:27:43.386Z,17.25
2022-10-23T15:37:46.366Z,17.14
2022-10-23T15:47:51.270Z,17.00
2022-10-23T15:57:53.863Z,16.93
2022-10-23T16:07:57.906Z,16.77
2022-10-23T16:18:00.490Z,16.78
2022-10-23T16:28:05.132Z,16.77
2022-10-23T16:38:07.716Z,16.72
2022-10-23T16:48:12.014Z,16.65
2022-10-23T16:58:14.607Z,16.63
2022-10-23T17:08:18.676Z,16.59
2022-10-23T17:18:21.287Z,16.50
2022-10-23T17:28:26.060Z,16.47
2022-10-23T17:38:28.702Z,16.30
2022-10-23T17:48:32.960Z,16.26
2022-10-23T17:58:36.719Z,16.28
2022-10-23T18:08:42.019Z,16.40
2022-10-23T18:18:48.011Z,16.41
2022-10-23T18:28:55.464Z,16.58
2022-10-23T18:38:58.087Z,16.61
2022-10-23T18:49:02.188Z,16.58
2022-10-23T18:59:07.327Z,16.52
2022-10-23T19:09:13.796Z,16.51
2022-10-23T19:19:19.383Z,16.51
2022-10-23T19:29:26.971Z,16.57
2022-10-23T19:39:29.601Z,16.60
2022-10-23T19:49:33.607Z,16.57
2022-10-23T19:59:36.183Z,16.43
2022-10-23T20:09:40.203Z,16.39
2022-10-23T20:19:44.579Z,16.37
2022-10-23T20:29:48.595Z,16.40
2022-10-23T20:39:51.690Z,16.35
2022-10-23T20:49:55.680Z,16.56
2022-10-23T20:59:59.219Z,16.69
2022-10-23T21:10:03.870Z,16.69
2022-10-23T21:20:07.200Z,16.81
2022-10-23T21:30:12.443Z,16.87
2022-10-23T21:40:15.077Z,16.95
2022-10-23T21:50:20.228Z,17.18
2022-10-23T22:00:23.565Z,17.21
2022-10-23T22:10:27.587Z,17.11
2022-10-23T22:20:30.179Z,17.17
2022-10-23T22:30:37.911Z,17.11
2022-10-23T22:40:45.627Z,16.94
2022-10-23T22:50:50.599Z,16.85
2022-10-23T23:00:54.262Z,16.87
2022-10-23T23:10:58.776Z,16.91
2022-10-23T23:21:02.182Z,16.80
2022-10-23T23:31:08.473Z,16.92
2022-10-23T23:41:13.674Z,17.00
2022-10-23T23:51:19.778Z,16.91
